createdAt,value
2023-04-26T00:01:35.837Z,21.84
2023-04-26T00:04:03.458Z,21.85
2023-04-26T00:06:30.474Z,21.83
2023-04-26T00:08:57.358Z,21.82
2023-04-26T00:11:24.195Z,21.83
2023-04-26T00:13:51.205Z,21.82
2023-04-26T00:16:18.813Z,21.80
2023-04-26T00:18:46.584Z,21.80
2023-04-26T00:21:13.468Z,21.78
2023-04-26T00:23:40.260Z,21.78
2023-04-26T00:26:07.114Z,21.80
2023-04-26T00:28:33.909Z,21.73
2023-04-26T00:31:00.842Z,21.74
2023-04-26T00:33:27.651Z,21.75
2023-04-26T00:35:54.476Z,21.76
2023-04-26T00:38:21.235Z,21.74
2023-04-26T00:40:47.980Z,21.72
2023-04-26T00:43:14.754Z,21.74
2023-04-26T00:45:41.612Z,21.72
2023-04-26T00:48:08.705Z,21.67
2023-04-26T00:50:35.622Z,21.66
2023-04-26T00:53:02.999Z,21.61
2023-04-26T00:55:29.984Z,21.60
2023-04-26T00:57:59.868Z,21.56
2023-04-26T01:00:26.828Z,21.53
2023-04-26T01:02:53.844Z,21.49
2023-04-26T01:05:21.038Z,21.43
2023-04-26T01:07:48.003Z,21.39
2023-04-26T01:10:14.849Z,21.36
2023-04-26T01:12:41.833Z,21.36
2023-04-26T01:15:09.948Z,21.31
2023-04-26T01:17:38.085Z,21.28
2023-04-26T01:20:05.734Z,21.24
2023-04-26T01:22:34.129Z,21.24
2023-04-26T01:25:01.943Z,21.20
2023-04-26T01:27:28.839Z,21.17
2023-04-26T01:29:56.119Z,21.16
2023-04-26T01:32:23.045Z,21.13
2023-04-26T01:34:49.848Z,21.11
2023-04-26T01:37:16.737Z,21.08
2023-04-26T01:39:43.492Z,21.03
2023-04-26T01:42:10.290Z,21.01
2023-04-26T01:44:37.125Z,20.98
2023-04-26T01:47:05.769Z,21.01
2023-04-26T01:49:33.016Z,20.98
2023-04-26T01:52:00.163Z,20.95
2023-04-26T01:54:29.441Z,20.92
2023-04-26T01:56:56.346Z,20.89
2023-04-26T01:59:23.243Z,20.93
2023-04-26T02:01:50.229Z,20.86
2023-04-26T02:04:17.249Z,20.83
2023-04-26T02:06:44.022Z,20.84
2023-04-26T02:09:10.849Z,20.81
2023-04-26T02:11:37.713Z,20.79
2023-04-26T02:14:04.528Z,20.77
2023-04-26T02:16:31.535Z,20.77
2023-04-26T02:18:59.653Z,20.81
2023-04-26T02:21:27.285Z,20.76
2023-04-26T02:23:54.288Z,20.77
2023-04-26T02:26:21.059Z,20.78
2023-04-26T02:28:47.892Z,20.76
2023-04-26T02:31:14.733Z,20.80
2023-04-26T02:33:41.527Z,20.76
2023-04-26T02:36:08.588Z,20.76
2023-04-26T02:38:36.756Z,20.75
2023-04-26T02:41:04.125Z,20.76
2023-04-26T02:43:31.145Z,20.71
2023-04-26T02:46:00.755Z,20.66
2023-04-26T02:48:27.642Z,20.67
2023-04-26T02:50:54.423Z,20.64
2023-04-26T02:53:21.271Z,20.64
2023-04-26T02:55:48.113Z,20.65
2023-04-26T02:58:14.911Z,20.62
2023-04-26T03:00:46.604Z,20.63
2023-04-26T03:03:14.113Z,20.60
2023-04-26T03:05:41.949Z,20.63
2023-04-26T03:08:11.917Z,20.58
2023-04-26T03:10:38.832Z,20.57
2023-04-26T03:13:05.712Z,20.52
2023-04-26T03:15:32.504Z,20.53
2023-04-26T03:17:59.421Z,20.55
2023-04-26T03:20:26.477Z,20.50
2023-04-26T03:22:53.292Z,20.46
2023-04-26T03:25:20.384Z,20.46
2023-04-26T03:27:49.566Z,20.46
2023-04-26T03:30:16.491Z,20.48
2023-04-26T03:32:43.435Z,20.46
2023-04-26T03:35:10.713Z,20.44
2023-04-26T03:37:40.221Z,20.44
2023-04-26T03:40:08.947Z,20.44
2023-04-26T03:42:37.026Z,20.40
2023-04-26T03:45:04.531Z,20.40
2023-04-26T03:47:31.768Z,20.41
2023-04-26T03:49:58.709Z,20.37
2023-04-26T03:52:25.682Z,20.34
2023-04-26T03:54:52.447Z,20.33
2023-04-26T03:57:19.272Z,20.34
2023-04-26T03:59:46.113Z,20.32
2023-04-26T04:02:13.098Z,20.32
2023-04-26T04:04:40.438Z,20.30
2023-04-26T04:07:07.911Z,20.26
2023-04-26T04:09:34.728Z,20.29
2023-04-26T04:12:01.486Z,20.23
2023-04-26T04:14:28.334Z,20.24
2023-04-26T04:16:55.185Z,20.16
2023-04-26T04:19:21.942Z,20.20
2023-04-26T04:21:48.795Z,20.17
2023-04-26T04:24:15.610Z,20.16
2023-04-26T04:26:42.776Z,20.14
2023-04-26T04:29:09.643Z,20.12
2023-04-26T04:31:37.091Z,20.15
2023-04-26T04:34:04.011Z,20.09
2023-04-26T04:36:31.627Z,20.12
2023-04-26T04:38:58.578Z,20.10
2023-04-26T04:41:25.742Z,20.09
2023-04-26T04:43:54.016Z,20.05
2023-04-26T04:46:21.197Z,20.07
2023-04-26T04:48:48.910Z,20.05
2023-04-26T04:51:15.670Z,20.02
2023-04-26T04:53:42.443Z,19.97
2023-04-26T04:56:09.420Z,19.99
2023-04-26T04:58:36.583Z,19.95
2023-04-26T05:01:03.380Z,19.99
2023-04-26T05:03:30.411Z,19.92
2023-04-26T05:05:57.747Z,19.94
2023-04-26T05:08:24.612Z,20.04
2023-04-26T05:10:51.967Z,20.08
2023-04-26T05:13:18.775Z,20.14
2023-04-26T05:15:47.920Z,20.18
2023-04-26T05:18:14.818Z,20.23
2023-04-26T05:20:41.910Z,20.27
2023-04-26T05:23:08.715Z,20.31
2023-04-26T05:25:37.419Z,20.37
2023-04-26T05:28:04.319Z,20.42
2023-04-26T05:30:31.166Z,20.48
2023-04-26T05:32:58.036Z,20.54
2023-04-26T05:35:24.931Z,20.60
2023-04-26T05:37:52.144Z,20.66
2023-04-26T05:40:18.937Z,20.73
2023-04-26T05:42:45.851Z,20.79
2023-04-26T05:45:12.851Z,20.84
2023-04-26T05:47:39.783Z,20.89
2023-04-26T05:50:07.287Z,20.95
2023-04-26T05:52:34.168Z,20.99
2023-04-26T05:55:04.483Z,21.03
2023-04-26T05:57:31.470Z,21.08
2023-04-26T06:00:00.472Z,21.09
2023-04-26T06:02:27.329Z,21.13
2023-04-26T06:04:54.601Z,21.16
2023-04-26T06:07:21.809Z,21.21
2023-04-26T06:09:48.711Z,21.22
2023-04-26T06:12:18.064Z,21.23
2023-04-26T06:14:44.895Z,21.26
2023-04-26T06:17:12.117Z,21.29
2023-04-26T06:19:39.078Z,21.30
2023-04-26T06:22:05.876Z,21.14
2023-04-26T06:24:32.794Z,21.24
2023-04-26T06:26:59.978Z,21.28
2023-04-26T06:29:27.061Z,21.29
2023-04-26T06:31:54.230Z,21.29
2023-04-26T06:34:23.571Z,21.23
2023-04-26T06:36:50.984Z,21.27
2023-04-26T06:39:18.063Z,21.23
2023-04-26T06:41:45.046Z,21.24
2023-04-26T06:44:12.262Z,21.22
2023-04-26T06:46:39.503Z,21.20
2023-04-26T06:49:06.591Z,21.21
2023-04-26T06:51:33.662Z,21.19
2023-04-26T06:54:01.704Z,21.16
2023-04-26T06:56:28.821Z,21.17
2023-04-26T06:59:01.168Z,21.12
2023-04-26T07:01:29.824Z,21.11
2023-04-26T07:03:58.698Z,21.07
2023-04-26T07:06:26.897Z,21.05
2023-04-26T07:08:54.463Z,21.00
2023-04-26T07:11:23.447Z,21.01
2023-04-26T07:13:53.903Z,20.95
2023-04-26T07:16:21.335Z,20.95
2023-04-26T07:18:50.097Z,20.95
2023-04-26T07:21:19.653Z,20.86
2023-04-26T07:23:47.073Z,20.82
2023-04-26T07:26:14.370Z,20.85
2023-04-26T07:28:41.477Z,20.83
2023-04-26T07:31:10.906Z,20.81
2023-04-26T07:33:38.590Z,20.76
2023-04-26T07:36:06.178Z,20.73
2023-04-26T07:38:33.809Z,20.82
2023-04-26T07:41:02.091Z,20.82
2023-04-26T07:43:31.411Z,20.76
2023-04-26T07:46:02.784Z,20.78
2023-04-26T07:48:33.185Z,20.73
2023-04-26T07:51:09.933Z,20.68
2023-04-26T07:53:37.485Z,20.65
2023-04-26T07:56:07.387Z,20.64
2023-04-26T07:58:35.855Z,20.64
2023-04-26T08:01:11.154Z,20.71
2023-04-26T08:03:38.806Z,20.73
2023-04-26T08:06:07.474Z,20.77
2023-04-26T08:08:35.778Z,20.82
2023-04-26T08:11:03.065Z,20.85
2023-04-26T08:13:30.671Z,20.90
2023-04-26T08:15:58.048Z,20.93
2023-04-26T08:18:25.348Z,20.98
2023-04-26T08:20:52.862Z,21.01
2023-04-26T08:23:20.241Z,21.03
2023-04-26T08:25:48.005Z,21.05
2023-04-26T08:28:15.454Z,21.08
2023-04-26T08:30:42.894Z,21.10
2023-04-26T08:33:10.571Z,21.12
2023-04-26T08:35:38.076Z,21.15
2023-04-26T08:38:05.381Z,21.17
2023-04-26T08:40:33.492Z,21.19
2023-04-26T08:43:01.207Z,21.20
2023-04-26T08:45:28.294Z,21.20
2023-04-26T08:47:59.383Z,21.21
2023-04-26T08:50:27.545Z,21.22
2023-04-26T08:52:54.818Z,21.22
2023-04-26T08:55:22.521Z,21.23
2023-04-26T08:57:50.825Z,21.25
2023-04-26T09:00:18.733Z,21.23
2023-04-26T09:02:48.277Z,21.23
2023-04-26T09:05:15.807Z,21.21
2023-04-26T09:07:44.867Z,21.23
2023-04-26T09:10:13.656Z,21.21
2023-04-26T09:12:41.372Z,21.23
2023-04-26T09:15:09.064Z,21.22
2023-04-26T09:17:37.807Z,21.19
2023-04-26T09:20:14.742Z,21.19
2023-04-26T09:22:41.772Z,21.18
2023-04-26T09:25:09.335Z,21.18
2023-04-26T09:27:37.728Z,21.13
2023-04-26T09:30:11.794Z,21.11
2023-04-26T09:32:48.966Z,21.10
2023-04-26T09:35:25.621Z,21.04
2023-04-26T09:37:59.338Z,21.02
2023-04-26T09:40:34.326Z,20.97
2023-04-26T09:43:02.656Z,20.95
2023-04-26T09:45:30.819Z,20.92
2023-04-26T09:48:08.103Z,20.89
2023-04-26T09:50:35.297Z,20.88
2023-04-26T09:53:03.645Z,20.85
2023-04-26T09:55:35.409Z,20.82
2023-04-26T09:58:10.581Z,20.82
2023-04-26T10:00:39.098Z,20.78
2023-04-26T10:03:08.864Z,20.77
2023-04-26T10:05:37.111Z,20.76
2023-04-26T10:08:04.422Z,20.75
2023-04-26T10:10:32.330Z,20.75
2023-04-26T10:12:59.545Z,20.72
2023-04-26T10:15:29.073Z,20.71
2023-04-26T10:17:56.381Z,20.69
2023-04-26T10:20:25.290Z,20.68
2023-04-26T10:22:54.345Z,20.65
2023-04-26T10:25:21.691Z,20.65
2023-04-26T10:27:49.429Z,20.62
2023-04-26T10:30:26.244Z,20.60
2023-04-26T10:32:53.687Z,20.58
2023-04-26T10:35:22.499Z,20.57
2023-04-26T10:37:58.602Z,20.55
2023-04-26T10:40:28.017Z,20.57
2023-04-26T10:43:04.549Z,20.53
2023-04-26T10:45:32.458Z,20.55
2023-04-26T10:48:08.554Z,20.54
2023-04-26T10:50:55.695Z,20.49
2023-04-26T10:53:23.993Z,20.47
2023-04-26T10:55:51.295Z,20.49
2023-04-26T10:58:28.649Z,20.48
2023-04-26T11:01:06.328Z,20.48
2023-04-26T11:03:33.803Z,20.47
2023-04-26T11:06:01.336Z,20.43
2023-04-26T11:08:32.834Z,20.44
2023-04-26T11:11:00.123Z,20.41
2023-04-26T11:13:27.932Z,20.40
2023-04-26T11:16:00.451Z,20.39
2023-04-26T11:18:27.698Z,20.39
2023-04-26T11:20:54.861Z,20.35
2023-04-26T11:23:23.864Z,20.41
2023-04-26T11:25:51.220Z,20.42
2023-04-26T11:28:19.744Z,20.44
2023-04-26T11:30:47.114Z,20.44
2023-04-26T11:33:23.779Z,20.44
2023-04-26T11:35:52.099Z,20.44
2023-04-26T11:38:22.551Z,20.44
2023-04-26T11:40:58.539Z,20.42
2023-04-26T11:43:31.250Z,20.42
2023-04-26T11:46:01.975Z,20.42
2023-04-26T11:48:30.897Z,20.41
2023-04-26T11:51:00.735Z,20.40
2023-04-26T11:53:38.365Z,20.38
2023-04-26T11:56:06.598Z,20.40
2023-04-26T11:58:33.877Z,20.39
2023-04-26T12:01:03.084Z,20.36
2023-04-26T12:03:38.283Z,20.36
2023-04-26T12:06:06.828Z,20.36
2023-04-26T12:08:34.351Z,20.37
2023-04-26T12:11:02.722Z,20.34
2023-04-26T12:13:30.715Z,20.34
2023-04-26T12:15:58.062Z,20.33
2023-04-26T12:18:33.125Z,20.30
2023-04-26T12:21:00.495Z,20.26
2023-04-26T12:23:28.022Z,20.28
2023-04-26T12:25:58.502Z,20.31
2023-04-26T12:28:25.612Z,20.27
2023-04-26T12:30:53.223Z,20.34
2023-04-26T12:33:23.470Z,20.36
2023-04-26T12:35:51.433Z,20.44
2023-04-26T12:38:19.411Z,20.54
2023-04-26T12:40:46.834Z,20.59
2023-04-26T12:43:17.419Z,20.65
2023-04-26T12:45:44.698Z,20.71
2023-04-26T12:48:18.549Z,20.73
2023-04-26T12:50:46.478Z,20.77
2023-04-26T12:53:14.646Z,20.84
2023-04-26T12:55:42.090Z,20.89
2023-04-26T12:58:09.551Z,20.93
2023-04-26T13:00:36.846Z,20.93
2023-04-26T13:03:04.621Z,20.98
2023-04-26T13:05:32.947Z,21.02
2023-04-26T13:08:02.667Z,21.05
2023-04-26T13:10:29.735Z,21.17
2023-04-26T13:12:58.820Z,21.27
2023-04-26T13:15:27.226Z,21.35
2023-04-26T13:17:54.890Z,21.39
2023-04-26T13:20:23.732Z,21.37
2023-04-26T13:22:52.786Z,21.40
2023-04-26T13:25:21.087Z,21.38
2023-04-26T13:27:48.222Z,21.43
2023-04-26T13:30:26.472Z,21.44
2023-04-26T13:32:58.222Z,21.41
2023-04-26T13:35:27.465Z,21.39
2023-04-26T13:37:58.813Z,21.37
2023-04-26T13:40:37.346Z,21.36
2023-04-26T13:43:07.931Z,21.33
2023-04-26T13:45:37.040Z,21.32
2023-04-26T13:48:04.569Z,21.28
2023-04-26T13:50:31.851Z,21.26
2023-04-26T13:52:58.915Z,21.22
2023-04-26T13:55:26.423Z,21.20
2023-04-26T13:57:58.419Z,21.18
2023-04-26T14:00:30.914Z,21.15
2023-04-26T14:03:02.341Z,21.13
2023-04-26T14:05:31.712Z,21.10
2023-04-26T14:08:01.379Z,21.07
2023-04-26T14:10:37.872Z,21.06
2023-04-26T14:13:08.159Z,21.02
2023-04-26T14:15:47.071Z,21.05
2023-04-26T14:18:16.716Z,21.01
2023-04-26T14:20:43.926Z,20.96
2023-04-26T14:23:11.209Z,20.97
2023-04-26T14:25:38.440Z,20.97
2023-04-26T14:28:07.450Z,20.96
2023-04-26T14:30:34.987Z,20.94
2023-04-26T14:33:01.959Z,20.91
2023-04-26T14:35:29.266Z,20.89
2023-04-26T14:37:56.741Z,20.85
2023-04-26T14:40:23.820Z,20.88
2023-04-26T14:42:50.815Z,20.85
2023-04-26T14:45:18.411Z,20.84
2023-04-26T14:47:45.872Z,20.83
2023-04-26T14:50:14.812Z,20.78
2023-04-26T14:52:42.257Z,20.75
2023-04-26T14:55:09.735Z,20.74
2023-04-26T14:57:37.202Z,20.72
2023-04-26T15:00:20.292Z,20.70
2023-04-26T15:02:50.304Z,20.68
2023-04-26T15:05:20.195Z,20.67
2023-04-26T15:07:47.135Z,20.66
2023-04-26T15:10:18.900Z,20.62
2023-04-26T15:12:46.497Z,20.58
2023-04-26T15:15:16.661Z,20.57
2023-04-26T15:17:43.986Z,20.54
2023-04-26T15:20:36.229Z,20.51
2023-04-26T15:23:06.058Z,20.46
2023-04-26T15:25:37.784Z,20.46
2023-04-26T15:28:05.232Z,20.43
2023-04-26T15:30:32.782Z,20.40
2023-04-26T15:33:00.854Z,20.39
2023-04-26T15:35:28.248Z,20.37
2023-04-26T15:37:55.458Z,20.36
2023-04-26T15:40:26.102Z,20.36
2023-04-26T15:42:54.017Z,20.33
2023-04-26T15:45:21.855Z,20.33
2023-04-26T15:47:51.709Z,20.31
2023-04-26T15:50:24.240Z,20.28
2023-04-26T15:52:54.896Z,20.28
2023-04-26T15:55:22.254Z,20.26
2023-04-26T15:57:49.619Z,20.27
2023-04-26T16:00:29.626Z,20.30
2023-04-26T16:03:05.915Z,20.26
2023-04-26T16:05:33.438Z,20.21
2023-04-26T16:08:01.215Z,20.23
2023-04-26T16:10:35.292Z,20.21
2023-04-26T16:13:03.766Z,20.23
2023-04-26T16:15:37.302Z,20.19
2023-04-26T16:18:30.008Z,20.18
2023-04-26T16:21:12.028Z,20.17
2023-04-26T16:23:39.880Z,20.15
2023-04-26T16:26:08.269Z,20.15
2023-04-26T16:28:36.270Z,20.10
2023-04-26T16:31:05.509Z,20.08
2023-04-26T16:33:36.203Z,20.07
2023-04-26T16:36:23.460Z,20.05
2023-04-26T16:38:54.985Z,20.02
2023-04-26T16:41:23.666Z,20.00
2023-04-26T16:43:54.430Z,19.98
2023-04-26T16:46:45.674Z,19.97
2023-04-26T16:49:18.048Z,19.93
2023-04-26T16:51:54.565Z,19.93
2023-04-26T16:54:36.061Z,19.91
2023-04-26T16:57:16.212Z,19.89
2023-04-26T17:00:10.491Z,19.89
2023-04-26T17:02:43.384Z,19.87
2023-04-26T17:05:11.837Z,19.86
2023-04-26T17:07:43.938Z,19.83
2023-04-26T17:10:18.362Z,19.87
2023-04-26T17:12:45.941Z,19.91
2023-04-26T17:15:13.824Z,19.90
2023-04-26T17:17:43.081Z,19.87
2023-04-26T17:20:19.034Z,19.89
2023-04-26T17:22:46.660Z,19.89
2023-04-26T17:25:14.504Z,19.89
2023-04-26T17:27:42.645Z,19.89
2023-04-26T17:30:12.877Z,19.90
2023-04-26T17:32:40.404Z,19.88
2023-04-26T17:35:08.406Z,19.86
2023-04-26T17:37:35.716Z,19.86
2023-04-26T17:40:15.689Z,19.83
2023-04-26T17:42:43.062Z,19.87
2023-04-26T17:45:14.182Z,19.81
2023-04-26T17:47:43.290Z,19.77
2023-04-26T17:50:14.593Z,19.74
2023-04-26T17:52:46.056Z,19.70
2023-04-26T17:55:13.772Z,19.69
2023-04-26T17:57:43.767Z,19.66
2023-04-26T18:00:13.935Z,19.64
2023-04-26T18:02:41.792Z,19.62
2023-04-26T18:05:09.527Z,19.60
2023-04-26T18:07:37.135Z,19.59
2023-04-26T18:10:04.990Z,19.57
2023-04-26T18:12:32.594Z,19.57
2023-04-26T18:14:59.942Z,19.55
2023-04-26T18:17:27.425Z,19.52
2023-04-26T18:19:55.293Z,19.51
2023-04-26T18:22:22.645Z,19.51
2023-04-26T18:24:49.785Z,19.48
2023-04-26T18:27:16.797Z,19.47
2023-04-26T18:29:44.550Z,19.46
2023-04-26T18:32:11.543Z,19.44
2023-04-26T18:34:38.564Z,19.44
2023-04-26T18:37:06.512Z,19.42
2023-04-26T18:39:33.922Z,19.41
2023-04-26T18:42:01.657Z,19.39
2023-04-26T18:44:28.679Z,19.38
2023-04-26T18:46:57.394Z,19.37
2023-04-26T18:49:25.983Z,19.35
2023-04-26T18:51:53.202Z,19.34
2023-04-26T18:54:20.408Z,19.33
2023-04-26T18:56:47.534Z,19.33
2023-04-26T18:59:14.702Z,19.30
2023-04-26T19:01:41.953Z,19.29
2023-04-26T19:04:09.982Z,19.28
2023-04-26T19:06:37.570Z,19.26
2023-04-26T19:09:06.541Z,19.26
2023-04-26T19:11:33.601Z,19.25
2023-04-26T19:14:00.752Z,19.23
2023-04-26T19:16:28.061Z,19.22
2023-04-26T19:18:55.608Z,19.22
2023-04-26T19:21:22.467Z,19.19
2023-04-26T19:23:49.510Z,19.21
2023-04-26T19:26:16.641Z,19.25
2023-04-26T19:28:43.776Z,19.29
2023-04-26T19:31:10.834Z,19.35
2023-04-26T19:33:38.644Z,19.40
2023-04-26T19:36:05.773Z,19.44
2023-04-26T19:38:32.909Z,19.51
2023-04-26T19:41:02.306Z,19.58
2023-04-26T19:43:29.347Z,19.65
2023-04-26T19:45:56.415Z,19.76
2023-04-26T19:48:23.291Z,19.83
2023-04-26T19:50:50.639Z,19.89
2023-04-26T19:53:18.176Z,19.93
2023-04-26T19:55:45.405Z,20.01
2023-04-26T19:58:12.935Z,20.08
2023-04-26T20:00:40.922Z,20.15
2023-04-26T20:03:08.138Z,20.23
2023-04-26T20:05:35.662Z,20.30
2023-04-26T20:08:05.175Z,20.38
2023-04-26T20:10:34.340Z,20.46
2023-04-26T20:13:01.892Z,20.53
2023-04-26T20:15:32.254Z,20.59
2023-04-26T20:18:03.471Z,20.66
2023-04-26T20:20:30.969Z,20.70
2023-04-26T20:22:57.902Z,20.79
2023-04-26T20:25:24.811Z,20.85
2023-04-26T20:27:52.044Z,20.91
2023-04-26T20:30:18.933Z,20.99
2023-04-26T20:32:45.927Z,21.03
2023-04-26T20:35:14.015Z,21.08
2023-04-26T20:37:41.029Z,21.17
2023-04-26T20:40:08.515Z,21.21
2023-04-26T20:42:35.831Z,21.24
2023-04-26T20:45:03.074Z,21.29
2023-04-26T20:47:30.430Z,21.35
2023-04-26T20:49:58.066Z,21.42
2023-04-26T20:52:25.449Z,21.47
2023-04-26T20:54:52.401Z,21.51
2023-04-26T20:57:19.549Z,21.55
2023-04-26T20:59:50.067Z,21.59
2023-04-26T21:02:17.055Z,21.66
2023-04-26T21:04:44.237Z,21.69
2023-04-26T21:07:11.245Z,21.73
2023-04-26T21:09:38.242Z,21.76
2023-04-26T21:12:07.829Z,21.80
2023-04-26T21:14:34.684Z,21.83
2023-04-26T21:17:01.913Z,21.85
2023-04-26T21:19:28.944Z,21.86
2023-04-26T21:21:55.860Z,21.87
2023-04-26T21:24:22.964Z,21.89
2023-04-26T21:26:52.249Z,21.93
2023-04-26T21:29:19.609Z,21.95
2023-04-26T21:31:46.601Z,21.97
2023-04-26T21:34:13.497Z,21.99
2023-04-26T21:36:40.390Z,22.04
2023-04-26T21:39:10.258Z,22.07
2023-04-26T21:41:37.565Z,22.10
2023-04-26T21:44:04.570Z,22.15
2023-04-26T21:46:31.883Z,22.19
2023-04-26T21:48:58.914Z,22.22
2023-04-26T21:51:25.904Z,22.25
2023-04-26T21:53:52.711Z,22.26
2023-04-26T21:56:19.608Z,22.29
2023-04-26T21:58:46.640Z,22.30
2023-04-26T22:01:14.754Z,22.31
2023-04-26T22:03:41.753Z,22.33
2023-04-26T22:06:09.903Z,22.33
2023-04-26T22:08:37.120Z,22.33
2023-04-26T22:11:04.139Z,22.32
2023-04-26T22:13:31.682Z,22.28
2023-04-26T22:15:58.746Z,22.31
2023-04-26T22:18:26.721Z,22.28
2023-04-26T22:20:54.068Z,22.29
2023-04-26T22:23:21.461Z,22.22
2023-04-26T22:25:48.678Z,22.30
2023-04-26T22:28:16.029Z,22.29
2023-04-26T22:30:43.130Z,22.29
2023-04-26T22:33:11.476Z,22.28
2023-04-26T22:35:38.637Z,22.26
2023-04-26T22:38:05.648Z,22.22
2023-04-26T22:40:32.984Z,22.16
2023-04-26T22:42:59.843Z,22.16
2023-04-26T22:45:26.634Z,22.12
2023-04-26T22:47:53.586Z,22.13
2023-04-26T22:50:20.493Z,22.09
2023-04-26T22:52:47.558Z,22.08
2023-04-26T22:55:14.578Z,22.05
2023-04-26T22:57:41.710Z,22.04
2023-04-26T23:00:12.222Z,22.01
2023-04-26T23:02:39.212Z,21.98
2023-04-26T23:05:09.832Z,21.98
2023-04-26T23:07:37.811Z,22.00
2023-04-26T23:10:07.494Z,21.95
2023-04-26T23:12:34.520Z,21.91
2023-04-26T23:15:02.168Z,21.89
2023-04-26T23:17:29.109Z,21.84
2023-04-26T23:19:56.832Z,21.85
2023-04-26T23:22:23.678Z,21.82
2023-04-26T23:24:50.568Z,21.80
2023-04-26T23:27:19.087Z,21.80
2023-04-26T23:29:46.018Z,21.76
2023-04-26T23:32:15.305Z,21.74
2023-04-26T23:34:44.471Z,21.72
2023-04-26T23:37:11.416Z,21.71
2023-04-26T23:39:38.306Z,21.69
2023-04-26T23:42:05.209Z,21.66
2023-04-26T23:44:31.993Z,21.65
2023-04-26T23:46:58.798Z,21.63
2023-04-26T23:49:25.584Z,21.61
2023-04-26T23:51:52.442Z,21.59
2023-04-26T23:54:19.330Z,21.56
2023-04-26T23:56:46.927Z,21.54
2023-04-26T23:59:14.852Z,21.50
